Aérodrome :
LOGIN :

S'inscrire | Disclaimer

   EN    FR    IT 

 










Légende :    VFR   VFR Marginal   IFR   IFR Intensif   IFR Très Intensif
Visi : 
Plafond : 
>= 8 km
>= 3000ft
5 à 8 km
1000 à 3000 ft
1500m à 5 km
500 à 1000 ft
800 à 1500m
200 à 500 ft
< 800m
< 200 ft
Symboles :   Orages  Brouillard  Fortes neiges  Fortes précipitations  Vent > 20 kt
SIGMETs :   Divers  Orages  Givrage  Turbulence  Onde Orograph.  Cendres Volcan.






- Altitude de l'aérodrome : 273 ft


EGXT - RAF Wittering Stamford

DERNIER METAR :
  • 211350Z 09012KT 9999 BKN017 06/03 Q1002 RMK WHT

METARs EXPIRÉS :
  • 211321Z 10012KT 9999 BKN016 06/03 Q1002 RMK WHT
  • 211250Z 10013KT 9999 BKN016 06/03 Q1003 RMK WHT
  • 211220Z 09012KT 8000 HZ OVC014 05/03 Q1003 RMK GRN
  • 211150Z 09010KT 7000 HZ SCT013 BKN018 05/03 Q1004 RMK GRN

TAF AMD TAF EGXT
Valide du 21 à 12h jusqu'au 21 à 18h UTC


211122Z 2112/2118 10007KT 6000 HZ BKN018
TEMPO 2112/2118 BKN013
PROB30
TEMPO 2112/2117 9999 NSW
PROB30 2117/2118 4000 BR



MET'MAP, la Météo Aéronautique d'un coup d'oeil ! - Copyright ORBIFLY Décembre 2007 - Disclaimer

ORBIFLY MET'MAP TEAM :

Programmation & Développement : Alexandra Zaïnal
Conception & Développement : Baudouin d'Aumeries
Co-Programmation & Développement : Marc-Olivier Méhu
Soutien technique & logistique : Manuel Goepfert

Contact : metmap@orbifly.com




SOURCES & CREDITS :

   NOAA